Flight Track Log - Related Links

Times and Time Zones

All times are in EDT time to prevent confusion due to time zone crossing. See the ABX601 flight status page for this flight to view local times or setup timezone preferences in your user account.

Time Position Orientation Groundspeed Altitude Reporting Facility
EDT Latitude Longitude Course Direction KTS MPH feet Rate Location/Type
Wed 04:21:17 AM 39.0500 -84.6833 270° West 163 188 1,300  Level Cincinnati TRACON
Wed 04:22:23 AM 39.0500 -84.7500 270° West 194 223 3,000 1,844 Climbing Cincinnati TRACON
Wed 04:24:16 AM 39.0264 -84.9089 259° West 241 277 6,800 2,241 Climbing Indianapolis Center
Wed 04:25:17 AM 38.9606 -84.8914 168° South 279 321 9,500 2,182 Climbing Indianapolis Center
Wed 04:26:17 AM 38.8897 -84.8361 149° Southeast 296 341 11,200 1,500 Climbing Indianapolis Center
Wed 04:27:17 AM 38.8072 -84.7700 148° Southeast 350 403 12,500 1,686 Climbing Indianapolis Center
Wed 04:28:18 AM 38.7172 -84.6983 148° Southeast 377 434 14,600 2,132 Climbing Indianapolis Center
Wed 04:29:18 AM 38.6056 -84.6378 157° South 392 451 16,800 1,934 Climbing Indianapolis Center
Wed 04:30:19 AM 38.4925 -84.6044 167° South 411 473 18,500 1,587 Climbing Indianapolis Center
Wed 04:31:19 AM 38.3769 -84.5656 165° South 427 491 20,000 1,450 Climbing Indianapolis Center
Wed 04:32:19 AM 38.2567 -84.5269 166° South 441 507 21,400 1,438 Climbing Indianapolis Center
Wed 04:33:20 AM 38.1331 -84.4861 165° South 455 524 22,900 1,438 Climbing Indianapolis Center
Wed 04:34:20 AM 38.0086 -84.4461 166° South 459 528 24,300 1,339 Climbing Indianapolis Center
Wed 04:35:21 AM 37.8794 -84.4047 166° South 473 544 25,600 1,240 Climbing Indianapolis Center
Wed 04:36:21 AM 37.7475 -84.3611 165° South 486 559 26,800 1,240 Climbing Indianapolis Center
Wed 04:37:22 AM 37.6133 -84.3169 165° South 495 570 28,100 1,339 Climbing Indianapolis Center
Wed 04:38:22 AM 37.4778 -84.2747 166° South 500 575 29,500 1,488 Climbing Indianapolis Center
Wed 04:39:23 AM 37.3447 -84.2311 165° South 496 571 31,100 1,438 Climbing Indianapolis Center
Wed 04:40:23 AM 37.2117 -84.1908 166° South 493 567 32,400 1,190 Climbing Indianapolis Center
Wed 04:41:24 AM 37.0797 -84.1483 166° South 491 565 33,500 793 Climbing Indianapolis Center
Wed 04:42:24 AM 36.9464 -84.1061 166° South 493 567 34,000 248 Climbing Indianapolis Center
Wed 04:43:25 AM 36.8100 -84.0633 166° South 503 579 34,000 298 Level Indianapolis Center
Wed 04:44:25 AM 36.6742 -84.0200 166° South 504 580 34,600 496 Climbing Indianapolis Center
Wed 04:45:26 AM 36.5397 -83.9781 166° South 501 577 35,000 197 Climbing Indianapolis Center
Wed 04:46:27 AM 36.3964 -83.9331 166° South 495 570 35,000  Level Indianapolis Center
Wed 04:47:27 AM 36.2650 -83.8933 166° South 487 560 35,000  Level Indianapolis Center
Wed 04:48:28 AM 36.1331 -83.8536 166° South 486 559 35,000  Level Indianapolis Center
Wed 04:49:28 AM 35.9989 -83.8122 166° South 491 565 35,000  Level Indianapolis Center
Wed 04:50:29 AM 35.8558 -83.7769 169° South 490 564 35,000  Level Indianapolis Center
Wed 04:51:30 AM 35.7222 -83.7444 169° South 488 562 35,000  Level Indianapolis Center
Wed 04:52:30 AM 35.5881 -83.7119 169° South 490 564 35,000  Level Indianapolis Center
Wed 04:54:00 AM 35.4093 -83.6686 169° South  Level FlightAware Approximate
Wed 04:55:51 AM 35.1353 -83.6044 169° South 488 562 35,000  Level Atlanta Center
Wed 04:56:51 AM 34.9997 -83.5722 169° South 488 562 35,000  Level Atlanta Center
Wed 04:58:00 AM 34.8668 -83.5198 162° South  Level Estimated
Wed 04:58:51 AM 34.7386 -83.5106 162° South 482 555 35,000  Level Atlanta Center
Wed 04:59:51 AM 34.6172 -83.4758 167° South 492 566 35,000  Level Atlanta Center
Wed 05:00:51 AM 34.4858 -83.4467 170° South 492 566 35,000  Level Atlanta Center
Wed 05:01:00 AM 34.5750 -83.4688 169° South  Level FlightAware Approximate
Wed 05:01:51 AM 34.3519 -83.4147 169° South 487 560 35,000  Level Atlanta Center
Wed 05:03:00 AM 34.2147 -83.3831 169° South  Level FlightAware Approximate
Wed 05:03:51 AM 34.0783 -83.3517 169° South 497 572 35,000  Level Atlanta Center
Wed 05:05:00 AM 33.9411 -83.3203 169° South  Level FlightAware Approximate
Wed 05:05:51 AM 33.7961 -83.2889 169° South 497 572 35,000  Level Atlanta Center
Wed 05:07:00 AM 33.6589 -83.2575 169° South  Level FlightAware Approximate
Wed 05:09:51 AM 33.2608 -83.1669 169° South 492 566 35,000  Level Atlanta Center
Wed 05:10:51 AM 33.1272 -83.1358 169° South 492 566 35,000  Level Atlanta Center
Wed 05:11:51 AM 33.0081 -83.1075 169° South 492 566 35,000  Level Atlanta Center
Wed 05:12:51 AM 32.8575 -83.0719 169° South 493 567 35,000  Level Atlanta Center
Wed 05:14:00 AM 32.8235 -83.0684 169° South  Level FlightAware Approximate
Wed 05:14:30 AM 32.6508 -83.0233 169° South 482 555 35,000  Level Jacksonville Center
Wed 05:15:00 AM 32.7041 -83.0417 169° South  Level FlightAware Approximate
Wed 05:15:30 AM 32.5131 -82.9936 170° South 489 563 35,000  Level Jacksonville Center
Wed 05:16:30 AM 32.3775 -82.9614 169° South 500 575 35,000  Level Jacksonville Center
Wed 05:17:30 AM 32.2417 -82.9319 170° South 500 575 35,000  Level Jacksonville Center
Wed 05:18:30 AM 32.1039 -82.9000 169° South 500 575 35,000  Level Jacksonville Center
Wed 05:19:30 AM 31.9556 -82.8656 169° South 506 582 35,000  Level Jacksonville Center
Wed 05:20:30 AM 31.8200 -82.8364 170° South 500 575 35,000  Level Jacksonville Center
Wed 05:21:30 AM 31.6842 -82.8047 169° South 500 575 35,000  Level Jacksonville Center
Wed 05:22:30 AM 31.5483 -82.7756 170° South 505 581 35,000  Level Jacksonville Center
Wed 05:23:30 AM 31.4128 -82.7464 170° South 500 575 35,000  Level Jacksonville Center
Wed 05:24:30 AM 31.2833 -82.7200 170° South 500 575 35,000  Level Jacksonville Center
Wed 05:25:30 AM 31.1494 -82.6911 170° South 488 562 35,000  Level Jacksonville Center
Wed 05:26:30 AM 31.0158 -82.6672 171° South 483 556 35,000  Level Jacksonville Center
Wed 05:27:30 AM 30.8842 -82.6383 169° South 483 556 35,000 -50 Level Jacksonville Center
Wed 05:28:30 AM 30.7528 -82.6122 170° South 488 562 34,900  Descending Jacksonville Center
Wed 05:29:30 AM 30.6211 -82.5908 172° South 483 556 35,000 50 Climbing Jacksonville Center
Wed 05:30:30 AM 30.4875 -82.6008 184° South 483 556 35,000  Level Jacksonville Center
Wed 05:31:30 AM 30.3644 -82.6083 183° South 483 556 35,000  Level Jacksonville Center
Wed 05:32:30 AM 30.2328 -82.6186 184° South 483 556 35,000  Level Jacksonville Center
Wed 05:33:30 AM 30.0950 -82.6261 183° South 483 556 35,000  Level Jacksonville Center
Wed 05:34:30 AM 29.9511 -82.6289 181° South 478 550 35,000 -50 Level Jacksonville Center
Wed 05:35:30 AM 29.8153 -82.6364 183° South 478 550 34,900  Descending Jacksonville Center
Wed 05:36:30 AM 29.6775 -82.6439 183° South 487 560 35,000 50 Climbing Jacksonville Center
Wed 05:37:30 AM 29.5522 -82.6561 185° South 493 567 35,000 -50 Level Jacksonville Center
Wed 05:38:30 AM 29.4061 -82.6614 182° South 493 567 34,900  Descending Jacksonville Center
Wed 05:39:30 AM 29.2683 -82.6664 182° South 493 567 35,000  Climbing Jacksonville Center
Wed 05:40:30 AM 29.1347 -82.6739 183° South 493 567 34,900  Descending Jacksonville Center
Wed 05:41:30 AM 28.9969 -82.6814 183° South 493 567 35,000 32 Climbing Jacksonville Center
Wed 05:43:39 AM 28.7181 -82.6944 182° South 502 578 35,000  Level Miami Center
Wed 05:44:41 AM 28.5672 -82.7078 184° South 502 578 35,000  Level Miami Center
Wed 05:45:40 AM 28.4314 -82.7150 183° South 502 578 35,000  Level Miami Center
Wed 05:46:41 AM 28.2958 -82.7197 182° South 502 578 35,000  Level Miami Center
Wed 05:47:39 AM 28.1578 -82.7289 183° South 497 572 35,000 -51 Level Miami Center
Wed 05:48:39 AM 28.0261 -82.7339 182° South 497 572 34,900  Descending Miami Center
Wed 05:49:39 AM 27.8911 -82.7197 175° South 490 564 35,000 50 Climbing Miami Center
Wed 05:50:39 AM 27.7639 -82.6686 160° South 490 564 35,000  Level Miami Center
Wed 05:51:38 AM 27.6342 -82.6222 162° South 476 548 35,000  Level Miami Center
Wed 05:52:38 AM 27.5089 -82.5714 160° South 481 554 35,000  Level Miami Center
Wed 05:53:38 AM 27.3936 -82.5308 163° South 481 554 35,000  Level Miami Center
Wed 05:54:38 AM 27.2664 -82.4825 161° South 481 554 35,000  Level Miami Center
Wed 05:55:38 AM 27.1264 -82.4289 161° South 481 554 35,000  Level Miami Center
Wed 05:56:38 AM 27.0008 -82.3881 164° South 478 550 35,000 -50 Level Miami Center
Wed 05:57:38 AM 26.8672 -82.3328 160° South 489 563 34,900 -200 Descending Miami Center
Wed 05:58:38 AM 26.7375 -82.2872 163° South 489 563 34,600 -950 Descending Miami Center
Wed 05:59:38 AM 26.6078 -82.2372 161° South 494 568 33,000 -1,400 Descending Miami Center
Wed 06:00:38 AM 26.5147 -82.1564 142° Southeast 469 540 31,800 -2,550 Descending Miami Center
Wed 06:01:38 AM 26.4181 -82.0547 137° Southeast 469 540 27,900 -3,150 Descending Miami Center
Wed 06:02:38 AM 26.3236 -81.9556 137° Southeast 469 540 25,500 -2,250 Descending Miami Center
Wed 06:03:38 AM 26.2328 -81.8589 136° Southeast 464 534 23,400 -2,050 Descending Miami Center
Wed 06:04:38 AM 26.1528 -81.7631 133° Southeast 447 514 21,400 -1,900 Descending Miami Center
Wed 06:05:38 AM 26.1147 -81.6458 110° East 412 474 19,600 -1,800 Descending Miami Center
Wed 06:06:38 AM 26.0767 -81.5311 110° East 401 461 17,800 -1,800 Descending Miami Center
Wed 06:07:38 AM 26.0406 -81.4189 110° East 388 447 16,000 -1,800 Descending Miami Center
Wed 06:08:38 AM 26.0064 -81.3133 110° East 379 436 14,200 -1,900 Descending Miami Center
Wed 06:09:38 AM 25.9700 -81.2011 110° East 364 419 12,200 -1,789 Descending Miami Center
Wed 06:10:32 AM 25.9369 -81.1144 113° Southeast 346 398 10,800 -1,053 Descending Miami Center
Wed 06:11:32 AM 25.9061 -81.0233 111° Southeast 297 342 10,200 -545 Descending Miami Center
Wed 06:12:33 AM 25.8731 -80.9439 115° Southeast 258 297 9,700 -836 Descending Miami Center
Wed 06:13:34 AM 25.8394 -80.8758 119° Southeast 252 290 8,500 -1,091 Descending Miami Center
Wed 06:14:34 AM 25.8036 -80.8075 120° Southeast 239 275 7,500 -1,091 Descending Miami Center
Wed 06:15:35 AM 25.7778 -80.7536 118° Southeast 191 220 6,300 -1,230 Descending Miami Center
Wed 06:16:36 AM 25.7647 -80.7025 106° East 166 191 5,000 -1,438 Descending Miami Center
Wed 06:17:36 AM 25.7700 -80.6542 83° East 163 188 3,400 -992 Descending Miami Center
Wed 06:18:37 AM 25.7714 -80.6014 88° East 161 185 3,000 -197 Descending Miami Center
Wed 06:19:38 AM 25.7725 -80.5528 89° East 161 185 3,000  Level Miami Center
Wed 06:20:38 AM 25.7761 -80.5022 85° East 161 185 3,000 -347 Level Miami Center
Wed 06:21:39 AM 25.7772 -80.4514 89° East 161 185 2,300 -738 Descending Miami Center
Wed 06:22:40 AM 25.7806 -80.4056 85° East 152 175 1,500 -744 Descending Miami Center
Wed 06:23:40 AM 25.7794 -80.3617 92° East 142 163 800 -694 Descending Miami Center
Wed 06:24:41 AM 25.7847 -80.3156 83° East 143 165 100 -689 Descending Miami Center
Wed 06:26:00 AM 25.7833 -80.2833 20° North  Level FlightAware Approximate

Login

Don't have an account? Register now (free) for customized features, flight alerts, and more!